Post Oak, Texas
Current Conditions -  °F | °C
As of 4:15 AM on Monday 26 Jan 2015 (Local Time) from KRWV Reporting Station
Clear Clear  
Wind Chill: 44°   Ceiling: Unl
Heat Index: 46°   Visibility: 10mi
Dew Point: 30°   Wind: 6mph
Humidity: 53%   Direction: 330°NNW
Pressure: 30.22"   Gusts: NA
Location:  30.2279°N, 96.7713°W
Report Text: KRWV 261015Z AUTO 33005KT 10SM CLR 08/M01 A3022 RMK AO2
Loading
Personal Weather Stations






























Interactive Weather Map New forecast layout! Learn more

10-Day Weather Forecast

Advertisements
Track Severe Weather on mobile